sensor_id;sensor_type;location;lat;lon;timestamp;pressure;altitude;pressure_sealevel;temperature;humidity
14612;BME280;7392;52.078;11.650;2023-04-29T00:02:26;100231.97;;;10.29;100.00
14612;BME280;7392;52.078;11.650;2023-04-29T00:04:57;100231.97;;;10.33;100.00
14612;BME280;7392;52.078;11.650;2023-04-29T00:07:25;100229.28;;;10.37;100.00
14612;BME280;7392;52.078;11.650;2023-04-29T00:09:53;100231.91;;;10.40;100.00
14612;BME280;7392;52.078;11.650;2023-04-29T00:12:21;100224.78;;;10.45;100.00
14612;BME280;7392;52.078;11.650;2023-04-29T00:14:49;100217.69;;;10.47;100.00
14612;BME280;7392;52.078;11.650;2023-04-29T00:17:17;100215.00;;;10.51;100.00
14612;BME280;7392;52.078;11.650;2023-04-29T00:19:46;100219.38;;;10.53;100.00
14612;BME280;7392;52.078;11.650;2023-04-29T00:22:13;100222.03;;;10.55;100.00
14612;BME280;7392;52.078;11.650;2023-04-29T00:24:41;100215.84;;;10.54;100.00
14612;BME280;7392;52.078;11.650;2023-04-29T00:27:09;100223.78;;;10.57;100.00
14612;BME280;7392;52.078;11.650;2023-04-29T00:29:37;100224.63;;;10.59;100.00
14612;BME280;7392;52.078;11.650;2023-04-29T00:32:05;100225.50;;;10.60;100.00
14612;BME280;7392;52.078;11.650;2023-04-29T00:34:33;100221.97;;;10.59;100.00
14612;BME280;7392;52.078;11.650;2023-04-29T00:37:02;100218.41;;;10.60;100.00
14612;BME280;7392;52.078;11.650;2023-04-29T00:39:30;100222.81;;;10.63;100.00
14612;BME280;7392;52.078;11.650;2023-04-29T00:41:57;100216.56;;;10.67;100.00
14612;BME280;7392;52.078;11.650;2023-04-29T00:44:25;100226.31;;;10.68;100.00
14612;BME280;7392;52.078;11.650;2023-04-29T00:46:53;100228.06;;;10.69;100.00
14612;BME280;7392;52.078;11.650;2023-04-29T00:49:21;100225.38;;;10.72;100.00
14612;BME280;7392;52.078;11.650;2023-04-29T00:51:49;100220.03;;;10.74;100.00
14612;BME280;7392;52.078;11.650;2023-04-29T00:54:18;100228.88;;;10.76;100.00
14612;BME280;7392;52.078;11.650;2023-04-29T00:56:46;100231.50;;;10.77;100.00
14612;BME280;7392;52.078;11.650;2023-04-29T00:59:15;100236.78;;;10.80;100.00
14612;BME280;7392;52.078;11.650;2023-04-29T01:01:44;100225.28;;;10.81;100.00
14612;BME280;7392;52.078;11.650;2023-04-29T01:04:12;100239.44;;;10.83;100.00
14612;BME280;7392;52.078;11.650;2023-04-29T01:06:48;100231.44;;;10.85;100.00
14612;BME280;7392;52.078;11.650;2023-04-29T01:09:36;100238.50;;;10.86;100.00
14612;BME280;7392;52.078;11.650;2023-04-29T01:12:20;100241.16;;;10.86;100.00
14612;BME280;7392;52.078;11.650;2023-04-29T01:14:53;100241.16;;;10.86;100.00
14612;BME280;7392;52.078;11.650;2023-04-29T01:17:30;100234.97;;;10.85;100.00
14612;BME280;7392;52.078;11.650;2023-04-29T01:20:04;100241.16;;;10.84;100.00
14612;BME280;7392;52.078;11.650;2023-04-29T01:22:33;100246.47;;;10.84;100.00
14612;BME280;7392;52.078;11.650;2023-04-29T01:25:02;100242.97;;;10.82;100.00
14612;BME280;7392;52.078;11.650;2023-04-29T01:27:41;100241.22;;;10.83;100.00
14612;BME280;7392;52.078;11.650;2023-04-29T01:30:20;100241.16;;;10.84;100.00
14612;BME280;7392;52.078;11.650;2023-04-29T01:32:59;100234.13;;;10.83;100.00
14612;BME280;7392;52.078;11.650;2023-04-29T01:35:39;100240.31;;;10.82;100.00
14612;BME280;7392;52.078;11.650;2023-04-29T01:38:19;100240.31;;;10.81;100.00
14612;BME280;7392;52.078;11.650;2023-04-29T01:40:58;100224.41;;;10.79;100.00
14612;BME280;7392;52.078;11.650;2023-04-29T01:43:31;100239.47;;;10.77;100.00
14612;BME280;7392;52.078;11.650;2023-04-29T01:46:08;100238.63;;;10.75;100.00
14612;BME280;7392;52.078;11.650;2023-04-29T01:48:37;100235.13;;;10.73;100.00
14612;BME280;7392;52.078;11.650;2023-04-29T01:51:06;100237.78;;;10.73;100.00
14612;BME280;7392;52.078;11.650;2023-04-29T01:53:34;100243.09;;;10.73;100.00
14612;BME280;7392;52.078;11.650;2023-04-29T01:56:03;100243.06;;;10.75;100.00
14612;BME280;7392;52.078;11.650;2023-04-29T01:58:54;100243.06;;;10.76;100.00
14612;BME280;7392;52.078;11.650;2023-04-29T02:01:51;100245.66;;;10.79;100.00
14612;BME280;7392;52.078;11.650;2023-04-29T02:04:21;100243.88;;;10.81;100.00
14612;BME280;7392;52.078;11.650;2023-04-29T02:06:50;100242.06;;;10.85;100.00
14612;BME280;7392;52.078;11.650;2023-04-29T02:09:19;100243.78;;;10.88;100.00
14612;BME280;7392;52.078;11.650;2023-04-29T02:11:55;100249.06;;;10.94;100.00
14612;BME280;7392;52.078;11.650;2023-04-29T02:14:22;100249.03;;;10.95;100.00
14612;BME280;7392;52.078;11.650;2023-04-29T02:16:50;100255.22;;;10.96;100.00
14612;BME280;7392;52.078;11.650;2023-04-29T02:19:18;100257.00;;;10.97;100.00
14612;BME280;7392;52.078;11.650;2023-04-29T02:21:49;100249.03;;;10.95;100.00
14612;BME280;7392;52.078;11.650;2023-04-29T02:24:17;100257.84;;;10.97;100.00
14612;BME280;7392;52.078;11.650;2023-04-29T02:26:46;100246.38;;;10.97;100.00
14612;BME280;7392;52.078;11.650;2023-04-29T02:29:15;100256.06;;;10.98;100.00
14612;BME280;7392;52.078;11.650;2023-04-29T02:31:43;100249.00;;;10.98;100.00
14612;BME280;7392;52.078;11.650;2023-04-29T02:34:12;100249.00;;;10.98;100.00
14612;BME280;7392;52.078;11.650;2023-04-29T02:36:39;100252.53;;;10.99;100.00
14612;BME280;7392;52.078;11.650;2023-04-29T02:39:07;100252.53;;;10.99;100.00
14612;BME280;7392;52.078;11.650;2023-04-29T02:41:34;100249.88;;;10.97;100.00
14612;BME280;7392;52.078;11.650;2023-04-29T02:44:02;100254.31;;;10.98;100.00
14612;BME280;7392;52.078;11.650;2023-04-29T02:46:31;100263.16;;;10.99;100.00
14612;BME280;7392;52.078;11.650;2023-04-29T02:49:01;100254.31;;;10.98;100.00
14612;BME280;7392;52.078;11.650;2023-04-29T02:51:30;100259.63;;;10.98;100.00
14612;BME280;7392;52.078;11.650;2023-04-29T02:53:58;100254.31;;;10.98;100.00
14612;BME280;7392;52.078;11.650;2023-04-29T02:56:26;100259.59;;;11.00;100.00
14612;BME280;7392;52.078;11.650;2023-04-29T02:58:55;100262.25;;;11.00;100.00
14612;BME280;7392;52.078;11.650;2023-04-29T03:01:22;100263.16;;;11.00;100.00
14612;BME280;7392;52.078;11.650;2023-04-29T03:03:52;100256.03;;;11.01;100.00
14612;BME280;7392;52.078;11.650;2023-04-29T03:06:20;100257.81;;;11.02;100.00
14612;BME280;7392;52.078;11.650;2023-04-29T03:08:49;100263.13;;;11.02;100.00
14612;BME280;7392;52.078;11.650;2023-04-29T03:11:18;100258.69;;;11.02;100.00
14612;BME280;7392;52.078;11.650;2023-04-29T03:13:46;100261.34;;;11.02;100.00
14612;BME280;7392;52.078;11.650;2023-04-29T03:16:14;100265.78;;;11.02;100.00
14612;BME280;7392;52.078;11.650;2023-04-29T03:18:42;100256.03;;;11.02;100.00
14612;BME280;7392;52.078;11.650;2023-04-29T03:21:11;100259.56;;;11.03;100.00
14612;BME280;7392;52.078;11.650;2023-04-29T03:23:39;100265.78;;;11.03;100.00
14612;BME280;7392;52.078;11.650;2023-04-29T03:26:11;100257.81;;;11.02;100.00
14612;BME280;7392;52.078;11.650;2023-04-29T03:28:39;100263.13;;;11.02;100.00
14612;BME280;7392;52.078;11.650;2023-04-29T03:31:07;100270.19;;;11.03;100.00
14612;BME280;7392;52.078;11.650;2023-04-29T03:33:37;100272.84;;;11.01;100.00
14612;BME280;7392;52.078;11.650;2023-04-29T03:36:05;100272.00;;;11.01;100.00
14612;BME280;7392;52.078;11.650;2023-04-29T03:38:42;100271.09;;;11.02;100.00
14612;BME280;7392;52.078;11.650;2023-04-29T03:41:10;100270.19;;;11.01;100.00
14612;BME280;7392;52.078;11.650;2023-04-29T03:43:38;100272.88;;;11.00;100.00
14612;BME280;7392;52.078;11.650;2023-04-29T03:46:05;100272.00;;;11.01;100.00
14612;BME280;7392;52.078;11.650;2023-04-29T03:48:33;100279.09;;;11.00;100.00
14612;BME280;7392;52.078;11.650;2023-04-29T03:51:01;100282.59;;;11.02;100.00
14612;BME280;7392;52.078;11.650;2023-04-29T03:53:29;100282.59;;;11.02;100.00
14612;BME280;7392;52.078;11.650;2023-04-29T03:55:59;100275.50;;;11.01;100.00
14612;BME280;7392;52.078;11.650;2023-04-29T03:58:27;100287.03;;;11.02;100.00
14612;BME280;7392;52.078;11.650;2023-04-29T04:00:54;100285.28;;;11.01;100.00
14612;BME280;7392;52.078;11.650;2023-04-29T04:03:30;100280.84;;;11.00;100.00
14612;BME280;7392;52.078;11.650;2023-04-29T04:05:58;100287.94;;;10.99;100.00
14612;BME280;7392;52.078;11.650;2023-04-29T04:08:26;100288.81;;;11.00;100.00
14612;BME280;7392;52.078;11.650;2023-04-29T04:10:56;100290.59;;;10.99;100.00
14612;BME280;7392;52.078;11.650;2023-04-29T04:13:40;100301.22;;;10.99;100.00
14612;BME280;7392;52.078;11.650;2023-04-29T04:16:08;100301.22;;;11.01;100.00
14612;BME280;7392;52.078;11.650;2023-04-29T04:18:36;100311.84;;;11.01;100.00
14612;BME280;7392;52.078;11.650;2023-04-29T04:21:04;100301.22;;;11.01;100.00
14612;BME280;7392;52.078;11.650;2023-04-29T04:23:33;100311.84;;;11.01;100.00
14612;BME280;7392;52.078;11.650;2023-04-29T04:26:02;100304.75;;;11.01;100.00
14612;BME280;7392;52.078;11.650;2023-04-29T04:28:50;100315.38;;;11.00;100.00
14612;BME280;7392;52.078;11.650;2023-04-29T04:31:26;100322.50;;;10.99;100.00
14612;BME280;7392;52.078;11.650;2023-04-29T04:33:54;100312.78;;;10.98;100.00
14612;BME280;7392;52.078;11.650;2023-04-29T04:36:22;100321.63;;;10.99;100.00
14612;BME280;7392;52.078;11.650;2023-04-29T04:38:49;100325.16;;;10.99;100.00
14612;BME280;7392;52.078;11.650;2023-04-29T04:41:17;100324.28;;;10.99;100.00
14612;BME280;7392;52.078;11.650;2023-04-29T04:43:46;100322.50;;;10.99;100.00
14612;BME280;7392;52.078;11.650;2023-04-29T04:46:28;100326.94;;;10.99;100.00
14612;BME280;7392;52.078;11.650;2023-04-29T04:49:08;100327.78;;;11.01;100.00
14612;BME280;7392;52.078;11.650;2023-04-29T04:51:42;100341.94;;;11.01;100.00
14612;BME280;7392;52.078;11.650;2023-04-29T04:54:10;100340.22;;;11.00;100.00
14612;BME280;7392;52.078;11.650;2023-04-29T04:56:39;100339.28;;;11.01;100.00
14612;BME280;7392;52.078;11.650;2023-04-29T04:59:06;100349.91;;;11.01;100.00
14612;BME280;7392;52.078;11.650;2023-04-29T05:01:38;100344.63;;;11.00;100.00
14612;BME280;7392;52.078;11.650;2023-04-29T05:04:05;100354.38;;;10.99;100.00
14612;BME280;7392;52.078;11.650;2023-04-29T05:06:34;100347.28;;;11.00;100.00
14612;BME280;7392;52.078;11.650;2023-04-29T05:09:03;100364.16;;;10.97;100.00
14612;BME280;7392;52.078;11.650;2023-04-29T05:11:31;100364.16;;;10.96;100.00
14612;BME280;7392;52.078;11.650;2023-04-29T05:14:09;100362.38;;;10.96;100.00
14612;BME280;7392;52.078;11.650;2023-04-29T05:16:41;100371.28;;;10.94;100.00
14612;BME280;7392;52.078;11.650;2023-04-29T05:19:15;100367.75;;;10.92;100.00
14612;BME280;7392;52.078;11.650;2023-04-29T05:21:43;100376.59;;;10.91;100.00
14612;BME280;7392;52.078;11.650;2023-04-29T05:24:11;100386.38;;;10.90;100.00
14612;BME280;7392;52.078;11.650;2023-04-29T05:26:40;100393.41;;;10.91;100.00
14612;BME280;7392;52.078;11.650;2023-04-29T05:29:09;100391.69;;;10.90;100.00
14612;BME280;7392;52.078;11.650;2023-04-29T05:31:51;100396.09;;;10.90;100.00
14612;BME280;7392;52.078;11.650;2023-04-29T05:34:21;100399.66;;;10.87;100.00
14612;BME280;7392;52.078;11.650;2023-04-29T05:36:51;100395.22;;;10.88;100.00
14612;BME280;7392;52.078;11.650;2023-04-29T05:39:19;100407.63;;;10.89;100.00
14612;BME280;7392;52.078;11.650;2023-04-29T05:41:57;100408.50;;;10.89;100.00
14612;BME280;7392;52.078;11.650;2023-04-29T05:44:35;100411.13;;;10.92;100.00
14612;BME280;7392;52.078;11.650;2023-04-29T05:47:06;100416.44;;;10.94;100.00
14612;BME280;7392;52.078;11.650;2023-04-29T05:49:33;100409.34;;;10.93;100.00
14612;BME280;7392;52.078;11.650;2023-04-29T05:52:01;100422.63;;;10.93;100.00
14612;BME280;7392;52.078;11.650;2023-04-29T05:54:36;100431.53;;;10.92;100.00
14612;BME280;7392;52.078;11.650;2023-04-29T05:57:05;100431.53;;;10.92;100.00
14612;BME280;7392;52.078;11.650;2023-04-29T05:59:33;100434.19;;;10.89;100.00
14612;BME280;7392;52.078;11.650;2023-04-29T06:02:03;100446.59;;;10.88;100.00
14612;BME280;7392;52.078;11.650;2023-04-29T06:04:34;100444.84;;;10.85;100.00
14612;BME280;7392;52.078;11.650;2023-04-29T06:07:13;100444.84;;;10.85;100.00
14612;BME280;7392;52.078;11.650;2023-04-29T06:09:54;100456.34;;;10.84;100.00
14612;BME280;7392;52.078;11.650;2023-04-29T06:12:24;100446.63;;;10.83;100.00
14612;BME280;7392;52.078;11.650;2023-04-29T06:14:51;100455.47;;;10.84;100.00
14612;BME280;7392;52.078;11.650;2023-04-29T06:17:19;100455.47;;;10.84;100.00
14612;BME280;7392;52.078;11.650;2023-04-29T06:19:49;100459.91;;;10.83;100.00
14612;BME280;7392;52.078;11.650;2023-04-29T06:22:20;100464.31;;;10.84;100.00
14612;BME280;7392;52.078;11.650;2023-04-29T06:24:50;100481.16;;;10.87;100.00
14612;BME280;7392;52.078;11.650;2023-04-29T06:27:32;100480.25;;;10.86;100.00
14612;BME280;7392;52.078;11.650;2023-04-29T06:30:01;100479.38;;;10.89;100.00
14612;BME280;7392;52.078;11.650;2023-04-29T06:32:28;100482.03;;;10.87;100.00
14612;BME280;7392;52.078;11.650;2023-04-29T06:34:58;100490.88;;;10.86;100.00
14612;BME280;7392;52.078;11.650;2023-04-29T06:37:45;100500.63;;;10.84;100.00
14612;BME280;7392;52.078;11.650;2023-04-29T06:40:27;100495.34;;;10.82;100.00
14612;BME280;7392;52.078;11.650;2023-04-29T06:43:34;100499.78;;;10.80;100.00
14612;BME280;7392;52.078;11.650;2023-04-29T06:46:25;100503.31;;;10.79;100.00
14612;BME280;7392;52.078;11.650;2023-04-29T06:49:14;100507.78;;;10.77;100.00
14612;BME280;7392;52.078;11.650;2023-04-29T06:51:44;100507.78;;;10.74;100.00
14612;BME280;7392;52.078;11.650;2023-04-29T06:54:12;100512.22;;;10.72;100.00
14612;BME280;7392;52.078;11.650;2023-04-29T06:56:40;100514.00;;;10.73;100.00
14612;BME280;7392;52.078;11.650;2023-04-29T06:59:08;100519.31;;;10.73;100.00
14612;BME280;7392;52.078;11.650;2023-04-29T07:01:37;100518.44;;;10.71;100.00
14612;BME280;7392;52.078;11.650;2023-04-29T07:04:10;100520.19;;;10.72;100.00
14612;BME280;7392;52.078;11.650;2023-04-29T07:06:38;100524.63;;;10.73;100.00
14612;BME280;7392;52.078;11.650;2023-04-29T07:09:07;100529.03;;;10.77;100.00
14612;BME280;7392;52.078;11.650;2023-04-29T07:11:35;100525.47;;;10.78;100.00
14612;BME280;7392;52.078;11.650;2023-04-29T07:14:03;100544.97;;;10.76;100.00
14612;BME280;7392;52.078;11.650;2023-04-29T07:16:30;100546.75;;;10.74;100.00
14612;BME280;7392;52.078;11.650;2023-04-29T07:18:59;100552.06;;;10.71;100.00
14612;BME280;7392;52.078;11.650;2023-04-29T07:21:26;100563.63;;;10.68;100.00
14612;BME280;7392;52.078;11.650;2023-04-29T07:23:56;100562.75;;;10.68;100.00
14612;BME280;7392;52.078;11.650;2023-04-29T07:26:28;100568.00;;;10.71;100.00
14612;BME280;7392;52.078;11.650;2023-04-29T07:28:56;100578.63;;;10.78;100.00
14612;BME280;7392;52.078;11.650;2023-04-29T07:31:24;100580.34;;;10.79;100.00
14612;BME280;7392;52.078;11.650;2023-04-29T07:33:53;100565.34;;;10.78;100.00
14612;BME280;7392;52.078;11.650;2023-04-29T07:36:22;100582.16;;;10.79;100.00
14612;BME280;7392;52.078;11.650;2023-04-29T07:38:50;100590.13;;;10.77;100.00
14612;BME280;7392;52.078;11.650;2023-04-29T07:41:18;100596.34;;;10.73;100.00
14612;BME280;7392;52.078;11.650;2023-04-29T07:43:47;100604.34;;;10.69;100.00
14612;BME280;7392;52.078;11.650;2023-04-29T07:46:15;100601.69;;;10.65;100.00
14612;BME280;7392;52.078;11.650;2023-04-29T07:48:43;100617.66;;;10.59;100.00
14612;BME280;7392;52.078;11.650;2023-04-29T07:51:11;100621.22;;;10.57;100.00
14612;BME280;7392;52.078;11.650;2023-04-29T07:53:41;100624.78;;;10.56;100.00
14612;BME280;7392;52.078;11.650;2023-04-29T07:56:09;100630.97;;;10.53;100.00
14612;BME280;7392;52.078;11.650;2023-04-29T07:58:38;100626.56;;;10.51;100.00
14612;BME280;7392;52.078;11.650;2023-04-29T08:01:09;100635.41;;;10.51;100.00
14612;BME280;7392;52.078;11.650;2023-04-29T08:03:38;100642.50;;;10.51;100.00
14612;BME280;7392;52.078;11.650;2023-04-29T08:06:09;100649.56;;;10.48;100.00
14612;BME280;7392;52.078;11.650;2023-04-29T08:08:39;100656.66;;;10.45;100.00
14612;BME280;7392;52.078;11.650;2023-04-29T08:11:14;100647.81;;;10.40;100.00
14612;BME280;7392;52.078;11.650;2023-04-29T08:13:42;100653.16;;;10.35;100.00
14612;BME280;7392;52.078;11.650;2023-04-29T08:16:12;100665.53;;;10.30;100.00
14612;BME280;7392;52.078;11.650;2023-04-29T08:18:40;100669.06;;;10.27;100.00
14612;BME280;7392;52.078;11.650;2023-04-29T08:21:09;100669.97;;;10.25;100.00
14612;BME280;7392;52.078;11.650;2023-04-29T08:23:38;100664.66;;;10.23;100.00
14612;BME280;7392;52.078;11.650;2023-04-29T08:26:08;100672.63;;;10.23;100.00
14612;BME280;7392;52.078;11.650;2023-04-29T08:28:36;100677.94;;;10.22;100.00
14612;BME280;7392;52.078;11.650;2023-04-29T08:31:04;100679.72;;;10.20;100.00
14612;BME280;7392;52.078;11.650;2023-04-29T08:33:34;100684.09;;;10.19;100.00
14612;BME280;7392;52.078;11.650;2023-04-29T08:36:03;100685.88;;;10.20;100.00
14612;BME280;7392;52.078;11.650;2023-04-29T08:38:31;100700.94;;;10.20;100.00
14612;BME280;7392;52.078;11.650;2023-04-29T08:40:59;100685.00;;;10.18;100.00
14612;BME280;7392;52.078;11.650;2023-04-29T08:43:27;100704.47;;;10.19;100.00
14612;BME280;7392;52.078;11.650;2023-04-29T08:45:57;100705.34;;;10.19;100.00
14612;BME280;7392;52.078;11.650;2023-04-29T08:48:26;100708.91;;;10.20;100.00
14612;BME280;7392;52.078;11.650;2023-04-29T08:50:56;100711.53;;;10.23;100.00
14612;BME280;7392;52.078;11.650;2023-04-29T08:53:24;100717.75;;;10.25;100.00
14612;BME280;7392;52.078;11.650;2023-04-29T08:55:52;100726.59;;;10.27;100.00
14612;BME280;7392;52.078;11.650;2023-04-29T08:58:23;100731.00;;;10.25;100.00
14612;BME280;7392;52.078;11.650;2023-04-29T09:00:52;100734.53;;;10.28;100.00
14612;BME280;7392;52.078;11.650;2023-04-29T09:03:24;100738.13;;;10.32;100.00
14612;BME280;7392;52.078;11.650;2023-04-29T09:05:55;100734.56;;;10.32;100.00
14612;BME280;7392;52.078;11.650;2023-04-29T09:08:26;100749.59;;;10.33;100.00
14612;BME280;7392;52.078;11.650;2023-04-29T09:10:54;100750.47;;;10.35;100.00
14612;BME280;7392;52.078;11.650;2023-04-29T09:13:23;100754.91;;;10.37;100.00
14612;BME280;7392;52.078;11.650;2023-04-29T09:15:52;100763.75;;;10.42;100.00
14612;BME280;7392;52.078;11.650;2023-04-29T09:18:42;100754.91;;;10.50;100.00
14612;BME280;7392;52.078;11.650;2023-04-29T09:21:17;100761.09;;;10.61;100.00
14612;BME280;7392;52.078;11.650;2023-04-29T09:23:49;100752.16;;;10.80;100.00
14612;BME280;7392;52.078;11.650;2023-04-29T09:26:18;100752.06;;;11.11;100.00
14612;BME280;7392;52.078;11.650;2023-04-29T09:28:46;100752.81;;;11.36;100.00
14612;BME280;7392;52.078;11.650;2023-04-29T09:31:26;100765.09;;;11.60;100.00
14612;BME280;7392;52.078;11.650;2023-04-29T09:33:55;100769.44;;;11.74;100.00
14612;BME280;7392;52.078;11.650;2023-04-29T09:36:42;100770.22;;;11.88;100.00
14612;BME280;7392;52.078;11.650;2023-04-29T09:39:12;100775.47;;;12.02;100.00
14612;BME280;7392;52.078;11.650;2023-04-29T09:41:56;100773.50;;;12.27;100.00
14612;BME280;7392;52.078;11.650;2023-04-29T09:44:26;100776.88;;;12.48;100.00
14612;BME280;7392;52.078;11.650;2023-04-29T09:47:01;100773.16;;;12.64;100.00
14612;BME280;7392;52.078;11.650;2023-04-29T09:49:30;100776.66;;;12.72;100.00
14612;BME280;7392;52.078;11.650;2023-04-29T09:52:01;100778.31;;;12.81;100.00
14612;BME280;7392;52.078;11.650;2023-04-29T09:54:31;100782.63;;;12.93;100.00
14612;BME280;7392;52.078;11.650;2023-04-29T09:57:00;100781.66;;;13.00;98.14
14612;BME280;7392;52.078;11.650;2023-04-29T09:59:32;100793.06;;;13.12;97.36
14612;BME280;7392;52.078;11.650;2023-04-29T10:02:06;100796.50;;;13.23;96.91
14612;BME280;7392;52.078;11.650;2023-04-29T10:04:37;100801.72;;;13.34;96.53
14612;BME280;7392;52.078;11.650;2023-04-29T10:07:08;100794.41;;;13.51;95.60
14612;BME280;7392;52.078;11.650;2023-04-29T10:09:40;100799.53;;;13.67;95.17
14612;BME280;7392;52.078;11.650;2023-04-29T10:12:08;100801.06;;;13.81;94.60
14612;BME280;7392;52.078;11.650;2023-04-29T10:14:42;100810.63;;;13.98;93.84
14612;BME280;7392;52.078;11.650;2023-04-29T10:17:15;100810.47;;;14.07;92.29
14612;BME280;7392;52.078;11.650;2023-04-29T10:20:01;100794.19;;;14.24;92.03
14612;BME280;7392;52.078;11.650;2023-04-29T10:22:39;100797.53;;;14.37;91.01
14612;BME280;7392;52.078;11.650;2023-04-29T10:25:11;100814.38;;;14.42;90.23
14612;BME280;7392;52.078;11.650;2023-04-29T10:27:41;100813.53;;;14.40;88.60
14612;BME280;7392;52.078;11.650;2023-04-29T10:30:11;100810.88;;;14.38;88.59
14612;BME280;7392;52.078;11.650;2023-04-29T10:32:40;100829.56;;;14.38;87.80
14612;BME280;7392;52.078;11.650;2023-04-29T10:35:18;100831.34;;;14.38;87.43
14612;BME280;7392;52.078;11.650;2023-04-29T10:37:50;100825.84;;;14.49;87.67
14612;BME280;7392;52.078;11.650;2023-04-29T10:40:22;100829.28;;;14.55;87.02
14612;BME280;7392;52.078;11.650;2023-04-29T10:42:52;100833.72;;;14.55;86.10
14612;BME280;7392;52.078;11.650;2023-04-29T10:45:22;100836.38;;;14.56;86.10
14612;BME280;7392;52.078;11.650;2023-04-29T10:48:13;100833.69;;;14.61;85.88
14612;BME280;7392;52.078;11.650;2023-04-29T10:51:02;100833.44;;;14.73;86.55
14612;BME280;7392;52.078;11.650;2023-04-29T10:53:32;100835.97;;;14.83;86.28
14612;BME280;7392;52.078;11.650;2023-04-29T10:56:05;100843.78;;;14.93;85.10
14612;BME280;7392;52.078;11.650;2023-04-29T10:58:41;100848.19;;;14.96;83.74
14612;BME280;7392;52.078;11.650;2023-04-29T11:01:10;100850.09;;;14.89;82.18
14612;BME280;7392;52.078;11.650;2023-04-29T11:03:47;100849.34;;;14.83;82.50
14612;BME280;7392;52.078;11.650;2023-04-29T11:06:16;100849.34;;;14.83;83.28
14612;BME280;7392;52.078;11.650;2023-04-29T11:08:45;100856.41;;;14.85;83.77
14612;BME280;7392;52.078;11.650;2023-04-29T11:11:13;100852.75;;;14.89;83.86
14612;BME280;7392;52.078;11.650;2023-04-29T11:13:44;100861.63;;;14.93;83.49
14612;BME280;7392;52.078;11.650;2023-04-29T11:16:12;100857.00;;;15.01;83.34
14612;BME280;7392;52.078;11.650;2023-04-29T11:19:04;100857.63;;;15.15;83.57
14612;BME280;7392;52.078;11.650;2023-04-29T11:21:33;100860.06;;;15.28;83.16
14612;BME280;7392;52.078;11.650;2023-04-29T11:24:03;100862.47;;;15.42;83.46
14612;BME280;7392;52.078;11.650;2023-04-29T11:26:33;100864.97;;;15.51;83.47
14612;BME280;7392;52.078;11.650;2023-04-29T11:29:01;100857.66;;;15.58;81.87
14612;BME280;7392;52.078;11.650;2023-04-29T11:31:30;100866.56;;;15.60;81.22
14612;BME280;7392;52.078;11.650;2023-04-29T11:33:58;100865.28;;;15.79;80.85
14612;BME280;7392;52.078;11.650;2023-04-29T11:36:26;100863.03;;;16.00;80.45
14612;BME280;7392;52.078;11.650;2023-04-29T11:38:53;100870.72;;;16.15;79.88
14612;BME280;7392;52.078;11.650;2023-04-29T11:41:23;100864.19;;;16.27;79.05
14612;BME280;7392;52.078;11.650;2023-04-29T11:43:54;100860.97;;;16.50;78.75
14612;BME280;7392;52.078;11.650;2023-04-29T11:46:22;100864.56;;;16.83;78.75
14612;BME280;7392;52.078;11.650;2023-04-29T11:48:50;100863.97;;;17.08;78.57
14612;BME280;7392;52.078;11.650;2023-04-29T11:51:18;100870.66;;;17.25;76.61
14612;BME280;7392;52.078;11.650;2023-04-29T11:53:46;100864.44;;;17.23;73.96
14612;BME280;7392;52.078;11.650;2023-04-29T11:56:14;100862.56;;;17.26;72.93
14612;BME280;7392;52.078;11.650;2023-04-29T11:58:43;100865.81;;;17.37;73.22
14612;BME280;7392;52.078;11.650;2023-04-29T12:01:11;100855.59;;;17.50;73.62
14612;BME280;7392;52.078;11.650;2023-04-29T12:03:39;100868.53;;;17.67;72.87
14612;BME280;7392;52.078;11.650;2023-04-29T12:06:07;100861.97;;;17.77;72.53
14612;BME280;7392;52.078;11.650;2023-04-29T12:08:35;100863.66;;;17.82;72.41
14612;BME280;7392;52.078;11.650;2023-04-29T12:11:05;100876.28;;;17.78;71.23
14612;BME280;7392;52.078;11.650;2023-04-29T12:13:36;100878.50;;;17.64;69.19
14612;BME280;7392;52.078;11.650;2023-04-29T12:16:10;100878.19;;;17.43;68.61
14612;BME280;7392;52.078;11.650;2023-04-29T12:18:39;100880.47;;;17.26;68.18
14612;BME280;7392;52.078;11.650;2023-04-29T12:21:08;100891.63;;;17.10;67.93
14612;BME280;7392;52.078;11.650;2023-04-29T12:23:40;100892.00;;;16.96;67.86
14612;BME280;7392;52.078;11.650;2023-04-29T12:26:13;100892.19;;;16.89;68.16
14612;BME280;7392;52.078;11.650;2023-04-29T12:28:42;100895.88;;;16.83;68.19
14612;BME280;7392;52.078;11.650;2023-04-29T12:31:14;100883.34;;;16.85;68.35
14612;BME280;7392;52.078;11.650;2023-04-29T12:33:42;100887.66;;;16.91;68.05
14612;BME280;7392;52.078;11.650;2023-04-29T12:36:15;100892.00;;;16.96;68.33
14612;BME280;7392;52.078;11.650;2023-04-29T12:38:59;100899.28;;;16.91;67.97
14612;BME280;7392;52.078;11.650;2023-04-29T12:41:38;100899.69;;;16.74;67.62
14612;BME280;7392;52.078;11.650;2023-04-29T12:44:15;100899.38;;;16.51;67.88
14612;BME280;7392;52.078;11.650;2023-04-29T12:46:47;100905.00;;;16.40;69.01
14612;BME280;7392;52.078;11.650;2023-04-29T12:49:16;100905.09;;;16.35;70.14
14612;BME280;7392;52.078;11.650;2023-04-29T12:51:48;100914.00;;;16.36;70.50
14612;BME280;7392;52.078;11.650;2023-04-29T12:54:17;100901.56;;;16.33;70.29
14612;BME280;7392;52.078;11.650;2023-04-29T12:56:47;100907.06;;;16.27;69.41
14612;BME280;7392;52.078;11.650;2023-04-29T12:59:18;100900.88;;;16.25;69.38
14612;BME280;7392;52.078;11.650;2023-04-29T13:01:47;100900.00;;;16.24;69.42
14612;BME280;7392;52.078;11.650;2023-04-29T13:04:15;100901.75;;;16.25;70.14